sensor_id;sensor_type;location;lat;lon;timestamp;pressure;altitude;pressure_sealevel;temperature;humidity
24558;BME280;12726;49.148;8.582;2023-05-08T00:02:20;100651.97;;;14.21;100.00
24558;BME280;12726;49.148;8.582;2023-05-08T00:05:06;100654.41;;;14.22;100.00
24558;BME280;12726;49.148;8.582;2023-05-08T00:07:51;100649.25;;;14.21;100.00
24558;BME280;12726;49.148;8.582;2023-05-08T00:10:43;100649.25;;;14.21;100.00
24558;BME280;12726;49.148;8.582;2023-05-08T00:13:29;100654.41;;;14.22;100.00
24558;BME280;12726;49.148;8.582;2023-05-08T00:16:16;100648.19;;;14.22;100.00
24558;BME280;12726;49.148;8.582;2023-05-08T00:19:01;100645.25;;;14.23;100.00
24558;BME280;12726;49.148;8.582;2023-05-08T00:21:47;100653.16;;;14.25;100.00
24558;BME280;12726;49.148;8.582;2023-05-08T00:24:35;100651.25;;;14.25;100.00
24558;BME280;12726;49.148;8.582;2023-05-08T00:27:20;100653.97;;;14.25;100.00
24558;BME280;12726;49.148;8.582;2023-05-08T00:30:06;100654.59;;;14.27;100.00
24558;BME280;12726;49.148;8.582;2023-05-08T00:32:53;100646.47;;;14.27;100.00
24558;BME280;12726;49.148;8.582;2023-05-08T00:35:38;100658.91;;;14.28;100.00
24558;BME280;12726;49.148;8.582;2023-05-08T00:38:25;100660.56;;;14.29;100.00
24558;BME280;12726;49.148;8.582;2023-05-08T00:41:10;100661.63;;;14.28;100.00
24558;BME280;12726;49.148;8.582;2023-05-08T00:43:56;100669.41;;;14.25;100.00
24558;BME280;12726;49.148;8.582;2023-05-08T00:46:41;100662.53;;;14.22;100.00
24558;BME280;12726;49.148;8.582;2023-05-08T00:49:28;100661.97;;;14.20;100.00
24558;BME280;12726;49.148;8.582;2023-05-08T00:52:14;100665.25;;;14.22;100.00
24558;BME280;12726;49.148;8.582;2023-05-08T00:55:01;100660.44;;;14.24;100.00
24558;BME280;12726;49.148;8.582;2023-05-08T00:57:47;100667.50;;;14.25;100.00
24558;BME280;12726;49.148;8.582;2023-05-08T01:00:33;100674.59;;;14.26;100.00
24558;BME280;12726;49.148;8.582;2023-05-08T01:03:19;100661.03;;;14.26;100.00
24558;BME280;12726;49.148;8.582;2023-05-08T01:06:06;100660.44;;;14.24;100.00
24558;BME280;12726;49.148;8.582;2023-05-08T01:08:52;100663.16;;;14.24;100.00
24558;BME280;12726;49.148;8.582;2023-05-08T01:11:50;100668.78;;;14.23;100.00
24558;BME280;12726;49.148;8.582;2023-05-08T01:14:46;100672.56;;;14.22;100.00
24558;BME280;12726;49.148;8.582;2023-05-08T01:17:43;100670.94;;;14.21;100.00
24558;BME280;12726;49.148;8.582;2023-05-08T01:20:36;100673.84;;;14.19;100.00
24558;BME280;12726;49.148;8.582;2023-05-08T01:23:51;100675.72;;;14.19;100.00
24558;BME280;12726;49.148;8.582;2023-05-08T01:27:19;100682.41;;;14.16;100.00
24558;BME280;12726;49.148;8.582;2023-05-08T01:30:32;100680.19;;;14.13;100.00
24558;BME280;12726;49.148;8.582;2023-05-08T01:33:29;100685.81;;;14.11;100.00
24558;BME280;12726;49.148;8.582;2023-05-08T01:36:21;100681.25;;;14.12;100.00
24558;BME280;12726;49.148;8.582;2023-05-08T01:39:12;100685.59;;;14.13;100.00
24558;BME280;12726;49.148;8.582;2023-05-08T01:42:03;100685.00;;;14.11;100.00
24558;BME280;12726;49.148;8.582;2023-05-08T01:44:52;100684.16;;;14.10;100.00
24558;BME280;12726;49.148;8.582;2023-05-08T01:47:40;100698.53;;;14.11;100.00
24558;BME280;12726;49.148;8.582;2023-05-08T01:50:32;100692.50;;;14.09;100.00
24558;BME280;12726;49.148;8.582;2023-05-08T01:53:20;100689.19;;;14.07;100.00
24558;BME280;12726;49.148;8.582;2023-05-08T01:56:09;100688.16;;;14.08;100.00
24558;BME280;12726;49.148;8.582;2023-05-08T01:58:57;100688.97;;;14.08;100.00
24558;BME280;12726;49.148;8.582;2023-05-08T02:01:44;100683.56;;;14.08;100.00
24558;BME280;12726;49.148;8.582;2023-05-08T02:04:33;100682.50;;;14.09;100.00
24558;BME280;12726;49.148;8.582;2023-05-08T02:07:21;100686.06;;;14.10;100.00
24558;BME280;12726;49.148;8.582;2023-05-08T02:10:07;100686.06;;;14.10;100.00
24558;BME280;12726;49.148;8.582;2023-05-08T02:12:54;100688.75;;;14.10;100.00
24558;BME280;12726;49.148;8.582;2023-05-08T02:15:41;100696.88;;;14.10;100.00
24558;BME280;12726;49.148;8.582;2023-05-08T02:18:28;100698.53;;;14.11;100.00
24558;BME280;12726;49.148;8.582;2023-05-08T02:21:16;100689.38;;;14.12;100.00
24558;BME280;12726;49.148;8.582;2023-05-08T02:24:05;100685.81;;;14.11;100.00
24558;BME280;12726;49.148;8.582;2023-05-08T02:26:51;100686.06;;;14.10;100.00
24558;BME280;12726;49.148;8.582;2023-05-08T02:29:38;100687.72;;;14.11;100.00
24558;BME280;12726;49.148;8.582;2023-05-08T02:32:25;100689.59;;;14.10;100.00
24558;BME280;12726;49.148;8.582;2023-05-08T02:35:13;100688.75;;;14.10;100.00
24558;BME280;12726;49.148;8.582;2023-05-08T02:37:59;100698.75;;;14.09;100.00
24558;BME280;12726;49.148;8.582;2023-05-08T02:40:52;100695.22;;;14.09;100.00
24558;BME280;12726;49.148;8.582;2023-05-08T02:43:39;100693.56;;;14.08;100.00
24558;BME280;12726;49.148;8.582;2023-05-08T02:46:28;100697.09;;;14.08;100.00
24558;BME280;12726;49.148;8.582;2023-05-08T02:49:26;100697.94;;;14.09;100.00
24558;BME280;12726;49.148;8.582;2023-05-08T02:52:17;100701.47;;;14.09;100.00
24558;BME280;12726;49.148;8.582;2023-05-08T02:55:13;100705.22;;;14.08;100.00
24558;BME280;12726;49.148;8.582;2023-05-08T02:58:06;100701.13;;;14.06;100.00
24558;BME280;12726;49.148;8.582;2023-05-08T03:00:57;100708.16;;;14.07;100.00
24558;BME280;12726;49.148;8.582;2023-05-08T03:03:44;100700.13;;;14.00;100.00
24558;BME280;12726;49.148;8.582;2023-05-08T03:06:36;100698.97;;;14.08;100.00
24558;BME280;12726;49.148;8.582;2023-05-08T03:09:25;100692.72;;;14.07;100.00
24558;BME280;12726;49.148;8.582;2023-05-08T03:12:14;100697.31;;;14.07;100.00
24558;BME280;12726;49.148;8.582;2023-05-08T03:15:06;100707.09;;;14.08;100.00
24558;BME280;12726;49.148;8.582;2023-05-08T03:17:56;100689.19;;;14.07;100.00
24558;BME280;12726;49.148;8.582;2023-05-08T03:20:45;100693.81;;;14.06;100.00
24558;BME280;12726;49.148;8.582;2023-05-08T03:23:32;100698.16;;;14.07;100.00
24558;BME280;12726;49.148;8.582;2023-05-08T03:26:20;100696.06;;;14.09;100.00
24558;BME280;12726;49.148;8.582;2023-05-08T03:29:07;100696.88;;;14.10;100.00
24558;BME280;12726;49.148;8.582;2023-05-08T03:31:55;100699.59;;;14.10;100.00
24558;BME280;12726;49.148;8.582;2023-05-08T03:34:41;100695.00;;;14.10;100.00
24558;BME280;12726;49.148;8.582;2023-05-08T03:37:27;100686.44;;;14.14;100.00
24558;BME280;12726;49.148;8.582;2023-05-08T03:40:12;100685.59;;;14.13;100.00
24558;BME280;12726;49.148;8.582;2023-05-08T03:42:59;100681.81;;;14.14;100.00
24558;BME280;12726;49.148;8.582;2023-05-08T03:45:46;100695.34;;;14.14;100.00
24558;BME280;12726;49.148;8.582;2023-05-08T03:48:33;100701.38;;;14.16;100.00
24558;BME280;12726;49.148;8.582;2023-05-08T03:51:20;100693.25;;;14.16;100.00
24558;BME280;12726;49.148;8.582;2023-05-08T03:54:06;100697.63;;;14.17;100.00
24558;BME280;12726;49.148;8.582;2023-05-08T03:56:52;100705.75;;;14.17;100.00
24558;BME280;12726;49.148;8.582;2023-05-08T03:59:45;100701.16;;;14.18;100.00
24558;BME280;12726;49.148;8.582;2023-05-08T04:02:37;100708.44;;;14.17;100.00
24558;BME280;12726;49.148;8.582;2023-05-08T04:05:33;100702.81;;;14.19;100.00
24558;BME280;12726;49.148;8.582;2023-05-08T04:08:23;100704.47;;;14.20;100.00
24558;BME280;12726;49.148;8.582;2023-05-08T04:11:16;100714.25;;;14.21;100.00
24558;BME280;12726;49.148;8.582;2023-05-08T04:14:03;100714.25;;;14.21;100.00
24558;BME280;12726;49.148;8.582;2023-05-08T04:16:51;100700.78;;;14.14;100.00
24558;BME280;12726;49.148;8.582;2023-05-08T04:19:42;100715.88;;;14.22;100.00
24558;BME280;12726;49.148;8.582;2023-05-08T04:22:32;100728.59;;;14.21;100.00
24558;BME280;12726;49.148;8.582;2023-05-08T04:25:18;100724.25;;;14.20;100.00
24558;BME280;12726;49.148;8.582;2023-05-08T04:28:04;100722.13;;;14.22;100.00
24558;BME280;12726;49.148;8.582;2023-05-08T04:30:49;100717.31;;;14.24;100.00
24558;BME280;12726;49.148;8.582;2023-05-08T04:33:35;100718.97;;;14.25;100.00
24558;BME280;12726;49.148;8.582;2023-05-08T04:36:20;100720.84;;;14.25;100.00
24558;BME280;12726;49.148;8.582;2023-05-08T04:39:08;100726.88;;;14.27;100.00
24558;BME280;12726;49.148;8.582;2023-05-08T04:41:53;100719.56;;;14.27;100.00
24558;BME280;12726;49.148;8.582;2023-05-08T04:44:45;100730.16;;;14.29;100.00
24558;BME280;12726;49.148;8.582;2023-05-08T04:47:31;100734.53;;;14.30;100.00
24558;BME280;12726;49.148;8.582;2023-05-08T04:50:16;100728.06;;;14.31;100.00
24558;BME280;12726;49.148;8.582;2023-05-08T04:53:02;100729.09;;;14.30;100.00
24558;BME280;12726;49.148;8.582;2023-05-08T04:55:49;100730.06;;;14.35;100.00
24558;BME280;12726;49.148;8.582;2023-05-08T04:58:34;100729.44;;;14.40;100.00
24558;BME280;12726;49.148;8.582;2023-05-08T05:01:20;100731.91;;;14.41;100.00
24558;BME280;12726;49.148;8.582;2023-05-08T05:04:05;100740.03;;;14.41;100.00
24558;BME280;12726;49.148;8.582;2023-05-08T05:06:50;100735.44;;;14.42;100.00
24558;BME280;12726;49.148;8.582;2023-05-08T05:09:36;100741.91;;;14.41;100.00
24558;BME280;12726;49.148;8.582;2023-05-08T05:12:23;100751.44;;;14.43;100.00
24558;BME280;12726;49.148;8.582;2023-05-08T05:15:09;100754.75;;;14.45;100.00
24558;BME280;12726;49.148;8.582;2023-05-08T05:17:54;100748.91;;;14.48;100.00
24558;BME280;12726;49.148;8.582;2023-05-08T05:20:39;100755.50;;;14.53;100.00
24558;BME280;12726;49.148;8.582;2023-05-08T05:23:25;100754.91;;;14.50;100.00
24558;BME280;12726;49.148;8.582;2023-05-08T05:26:10;100753.72;;;14.46;100.00
24558;BME280;12726;49.148;8.582;2023-05-08T05:28:57;100758.66;;;14.49;100.00
24558;BME280;12726;49.148;8.582;2023-05-08T05:31:42;100763.50;;;14.47;100.00
24558;BME280;12726;49.148;8.582;2023-05-08T05:34:28;100757.59;;;14.50;100.00
24558;BME280;12726;49.148;8.582;2023-05-08T05:37:13;100762.66;;;14.47;100.00
24558;BME280;12726;49.148;8.582;2023-05-08T05:39:59;100765.16;;;14.48;100.00
24558;BME280;12726;49.148;8.582;2023-05-08T05:42:47;100768.91;;;14.47;100.00
24558;BME280;12726;49.148;8.582;2023-05-08T05:45:34;100764.69;;;14.52;100.00
24558;BME280;12726;49.148;8.582;2023-05-08T05:48:20;100758.00;;;14.54;100.00
24558;BME280;12726;49.148;8.582;2023-05-08T05:51:05;100774.59;;;14.58;100.00
24558;BME280;12726;49.148;8.582;2023-05-08T05:53:50;100773.75;;;14.57;100.00
24558;BME280;12726;49.148;8.582;2023-05-08T05:56:36;100773.94;;;14.62;100.00
24558;BME280;12726;49.148;8.582;2023-05-08T05:59:21;100773.09;;;14.62;100.00
24558;BME280;12726;49.148;8.582;2023-05-08T06:02:08;100776.47;;;14.57;100.00
24558;BME280;12726;49.148;8.582;2023-05-08T06:04:57;100772.38;;;14.55;100.00
24558;BME280;12726;49.148;8.582;2023-05-08T06:07:42;100775.06;;;14.55;100.00
24558;BME280;12726;49.148;8.582;2023-05-08T06:10:28;100786.47;;;14.57;100.00
24558;BME280;12726;49.148;8.582;2023-05-08T06:13:14;100778.13;;;14.58;100.00
24558;BME280;12726;49.148;8.582;2023-05-08T06:15:59;100787.09;;;14.59;100.00
24558;BME280;12726;49.148;8.582;2023-05-08T06:18:46;100785.59;;;14.63;100.00
24558;BME280;12726;49.148;8.582;2023-05-08T06:21:31;100789.13;;;14.63;100.00
24558;BME280;12726;49.148;8.582;2023-05-08T06:24:17;100795.00;;;14.60;100.00
24558;BME280;12726;49.148;8.582;2023-05-08T06:27:02;100793.34;;;14.59;100.00
24558;BME280;12726;49.148;8.582;2023-05-08T06:29:48;100790.41;;;14.61;100.00
24558;BME280;12726;49.148;8.582;2023-05-08T06:32:34;100791.25;;;14.61;100.00
24558;BME280;12726;49.148;8.582;2023-05-08T06:35:21;100791.59;;;14.65;100.00
24558;BME280;12726;49.148;8.582;2023-05-08T06:38:07;100786.66;;;14.62;100.00
24558;BME280;12726;49.148;8.582;2023-05-08T06:40:52;100789.94;;;14.64;100.00
24558;BME280;12726;49.148;8.582;2023-05-08T06:43:38;100795.34;;;14.64;100.00
24558;BME280;12726;49.148;8.582;2023-05-08T06:46:23;100789.94;;;14.64;100.00
24558;BME280;12726;49.148;8.582;2023-05-08T06:49:09;100789.72;;;14.65;100.00
24558;BME280;12726;49.148;8.582;2023-05-08T06:51:55;100793.25;;;14.66;100.00
24558;BME280;12726;49.148;8.582;2023-05-08T06:54:40;100793.97;;;14.73;100.00
24558;BME280;12726;49.148;8.582;2023-05-08T06:57:26;100790.59;;;14.77;100.00
24558;BME280;12726;49.148;8.582;2023-05-08T07:00:13;100794.72;;;14.80;100.00
24558;BME280;12726;49.148;8.582;2023-05-08T07:02:59;100794.78;;;14.92;100.00
24558;BME280;12726;49.148;8.582;2023-05-08T07:05:44;100790.06;;;14.99;100.00
24558;BME280;12726;49.148;8.582;2023-05-08T07:08:31;100795.13;;;14.95;100.00
24558;BME280;12726;49.148;8.582;2023-05-08T07:11:17;100802.66;;;14.93;100.00
24558;BME280;12726;49.148;8.582;2023-05-08T07:14:02;100794.41;;;15.00;100.00
24558;BME280;12726;49.148;8.582;2023-05-08T07:16:47;100798.78;;;15.01;100.00
24558;BME280;12726;49.148;8.582;2023-05-08T07:19:34;100807.63;;;15.08;100.00
24558;BME280;12726;49.148;8.582;2023-05-08T07:22:19;100802.25;;;15.19;100.00
24558;BME280;12726;49.148;8.582;2023-05-08T07:25:07;100806.59;;;15.20;100.00
24558;BME280;12726;49.148;8.582;2023-05-08T07:27:53;100811.56;;;15.23;100.00
24558;BME280;12726;49.148;8.582;2023-05-08T07:30:38;100811.47;;;15.30;100.00
24558;BME280;12726;49.148;8.582;2023-05-08T07:33:24;100805.94;;;15.37;100.00
24558;BME280;12726;49.148;8.582;2023-05-08T07:36:10;100811.47;;;15.42;100.00
24558;BME280;12726;49.148;8.582;2023-05-08T07:38:55;100802.28;;;15.43;100.00
24558;BME280;12726;49.148;8.582;2023-05-08T07:41:42;100810.56;;;15.48;100.00
24558;BME280;12726;49.148;8.582;2023-05-08T07:44:30;100811.31;;;15.55;100.00
24558;BME280;12726;49.148;8.582;2023-05-08T07:47:16;100814.00;;;15.55;100.00
24558;BME280;12726;49.148;8.582;2023-05-08T07:50:02;100814.00;;;15.55;100.00
24558;BME280;12726;49.148;8.582;2023-05-08T07:52:47;100817.91;;;15.59;100.00
24558;BME280;12726;49.148;8.582;2023-05-08T07:55:33;100818.50;;;15.61;100.00
24558;BME280;12726;49.148;8.582;2023-05-08T07:58:19;100817.56;;;15.67;100.00
24558;BME280;12726;49.148;8.582;2023-05-08T08:01:05;100814.59;;;15.69;100.00
24558;BME280;12726;49.148;8.582;2023-05-08T08:03:50;100816.38;;;15.75;100.00
24558;BME280;12726;49.148;8.582;2023-05-08T08:06:36;100814.13;;;15.83;100.00
24558;BME280;12726;49.148;8.582;2023-05-08T08:09:22;100819.09;;;15.98;100.00
24558;BME280;12726;49.148;8.582;2023-05-08T08:12:07;100821.78;;;16.10;100.00
24558;BME280;12726;49.148;8.582;2023-05-08T08:14:54;100824.94;;;16.18;100.00
24558;BME280;12726;49.148;8.582;2023-05-08T08:17:40;100824.47;;;16.21;100.00
24558;BME280;12726;49.148;8.582;2023-05-08T08:20:25;100822.94;;;16.25;100.00
24558;BME280;12726;49.148;8.582;2023-05-08T08:23:10;100828.94;;;16.27;100.00
24558;BME280;12726;49.148;8.582;2023-05-08T08:25:56;100819.72;;;16.28;100.00
24558;BME280;12726;49.148;8.582;2023-05-08T08:28:41;100832.59;;;16.33;100.00
24558;BME280;12726;49.148;8.582;2023-05-08T08:31:28;100827.59;;;16.41;100.00
24558;BME280;12726;49.148;8.582;2023-05-08T08:34:13;100831.63;;;16.39;100.00
24558;BME280;12726;49.148;8.582;2023-05-08T08:36:58;100833.84;;;16.42;100.00
24558;BME280;12726;49.148;8.582;2023-05-08T08:39:43;100828.56;;;16.47;100.00
24558;BME280;12726;49.148;8.582;2023-05-08T08:42:29;100816.84;;;16.47;100.00
24558;BME280;12726;49.148;8.582;2023-05-08T08:45:14;100831.38;;;16.52;100.00
24558;BME280;12726;49.148;8.582;2023-05-08T08:48:02;100830.78;;;16.62;100.00
24558;BME280;12726;49.148;8.582;2023-05-08T08:50:49;100825.78;;;16.59;100.00
24558;BME280;12726;49.148;8.582;2023-05-08T08:53:42;100827.00;;;16.51;100.00
24558;BME280;12726;49.148;8.582;2023-05-08T08:56:29;100840.44;;;16.69;100.00
24558;BME280;12726;49.148;8.582;2023-05-08T08:59:16;100833.34;;;16.68;100.00
24558;BME280;12726;49.148;8.582;2023-05-08T09:02:05;100837.59;;;16.76;100.00
24558;BME280;12726;49.148;8.582;2023-05-08T09:04:54;100834.56;;;16.89;100.00
24558;BME280;12726;49.148;8.582;2023-05-08T09:07:40;100836.47;;;17.05;100.00
24558;BME280;12726;49.148;8.582;2023-05-08T09:10:26;100826.53;;;17.11;100.00
24558;BME280;12726;49.148;8.582;2023-05-08T09:13:12;100827.22;;;17.18;100.00
24558;BME280;12726;49.148;8.582;2023-05-08T09:15:58;100834.84;;;17.21;100.00
24558;BME280;12726;49.148;8.582;2023-05-08T09:18:44;100827.28;;;17.23;100.00
24558;BME280;12726;49.148;8.582;2023-05-08T09:21:30;100835.53;;;17.28;100.00
24558;BME280;12726;49.148;8.582;2023-05-08T09:24:16;100834.63;;;17.22;100.00
24558;BME280;12726;49.148;8.582;2023-05-08T09:27:02;100831.66;;;17.24;100.00
24558;BME280;12726;49.148;8.582;2023-05-08T09:29:59;100834.28;;;17.36;100.00
24558;BME280;12726;49.148;8.582;2023-05-08T09:32:45;100837.03;;;17.52;100.00
24558;BME280;12726;49.148;8.582;2023-05-08T09:35:34;100838.03;;;17.63;100.00
24558;BME280;12726;49.148;8.582;2023-05-08T09:38:35;100842.75;;;17.68;100.00
24558;BME280;12726;49.148;8.582;2023-05-08T09:41:21;100844.41;;;17.69;100.00
24558;BME280;12726;49.148;8.582;2023-05-08T09:44:07;100836.44;;;17.84;100.00
24558;BME280;12726;49.148;8.582;2023-05-08T09:47:08;100842.25;;;17.87;100.00
24558;BME280;12726;49.148;8.582;2023-05-08T09:49:57;100845.31;;;17.74;100.00
24558;BME280;12726;49.148;8.582;2023-05-08T09:52:45;100839.63;;;17.76;100.00
24558;BME280;12726;49.148;8.582;2023-05-08T09:55:46;100845.38;;;17.79;99.73
24558;BME280;12726;49.148;8.582;2023-05-08T09:58:37;100849.09;;;17.90;100.00
24558;BME280;12726;49.148;8.582;2023-05-08T10:01:30;100850.53;;;17.97;97.81
24558;BME280;12726;49.148;8.582;2023-05-08T10:04:16;100851.22;;;17.88;97.38
24558;BME280;12726;49.148;8.582;2023-05-08T10:07:02;100857.34;;;17.78;99.50
24558;BME280;12726;49.148;8.582;2023-05-08T10:09:56;100853.78;;;17.78;99.94
24558;BME280;12726;49.148;8.582;2023-05-08T10:12:44;100862.47;;;17.75;100.00
24558;BME280;12726;49.148;8.582;2023-05-08T10:15:29;100859.66;;;17.70;100.00
24558;BME280;12726;49.148;8.582;2023-05-08T10:18:16;100856.28;;;17.79;100.00
24558;BME280;12726;49.148;8.582;2023-05-08T10:21:05;100852.47;;;17.80;100.00
24558;BME280;12726;49.148;8.582;2023-05-08T10:23:53;100850.22;;;17.94;100.00
24558;BME280;12726;49.148;8.582;2023-05-08T10:26:42;100853.56;;;18.18;100.00
24558;BME280;12726;49.148;8.582;2023-05-08T10:29:32;100845.84;;;18.53;99.47
24558;BME280;12726;49.148;8.582;2023-05-08T10:32:20;100858.25;;;18.83;95.48
24558;BME280;12726;49.148;8.582;2023-05-08T10:35:09;100851.44;;;18.85;95.59
24558;BME280;12726;49.148;8.582;2023-05-08T10:37:55;100848.59;;;19.29;94.77
24558;BME280;12726;49.148;8.582;2023-05-08T10:40:41;100847.13;;;19.80;90.11
24558;BME280;12726;49.148;8.582;2023-05-08T10:43:28;100839.19;;;20.25;88.66
24558;BME280;12726;49.148;8.582;2023-05-08T10:46:21;100842.22;;;20.24;86.82
24558;BME280;12726;49.148;8.582;2023-05-08T10:49:27;100842.88;;;19.94;86.32
24558;BME280;12726;49.148;8.582;2023-05-08T10:52:16;100840.00;;;19.74;86.57
24558;BME280;12726;49.148;8.582;2023-05-08T10:55:19;100843.38;;;19.27;89.94
24558;BME280;12726;49.148;8.582;2023-05-08T10:58:11;100841.31;;;19.07;89.70
24558;BME280;12726;49.148;8.582;2023-05-08T11:01:14;100841.88;;;18.83;89.99
24558;BME280;12726;49.148;8.582;2023-05-08T11:04:00;100837.41;;;18.76;92.37
24558;BME280;12726;49.148;8.582;2023-05-08T11:07:03;100829.50;;;18.75;90.40
24558;BME280;12726;49.148;8.582;2023-05-08T11:09:48;100831.22;;;18.81;90.15
24558;BME280;12726;49.148;8.582;2023-05-08T11:12:34;100832.09;;;18.87;90.84
24558;BME280;12726;49.148;8.582;2023-05-08T11:15:35;100830.63;;;18.79;91.05
24558;BME280;12726;49.148;8.582;2023-05-08T11:18:21;100828.31;;;18.93;91.51
24558;BME280;12726;49.148;8.582;2023-05-08T11:21:14;100829.56;;;19.07;91.35
24558;BME280;12726;49.148;8.582;2023-05-08T11:24:09;100820.41;;;19.18;89.94
24558;BME280;12726;49.148;8.582;2023-05-08T11:26:56;100826.50;;;19.30;86.69
24558;BME280;12726;49.148;8.582;2023-05-08T11:29:42;100824.78;;;19.51;86.66
24558;BME280;12726;49.148;8.582;2023-05-08T11:35:58;100824.31;;;19.59;84.93
24558;BME280;12726;49.148;8.582;2023-05-08T11:39:04;100821.56;;;19.27;87.90
24558;BME280;12726;49.148;8.582;2023-05-08T11:41:51;100825.06;;;19.23;88.30
24558;BME280;12726;49.148;8.582;2023-05-08T11:44:37;100823.78;;;19.30;89.86
24558;BME280;12726;49.148;8.582;2023-05-08T11:47:23;100818.66;;;19.39;88.95
24558;BME280;12726;49.148;8.582;2023-05-08T11:50:15;100819.38;;;19.56;88.52
24558;BME280;12726;49.148;8.582;2023-05-08T11:53:01;100807.97;;;19.69;87.44
24558;BME280;12726;49.148;8.582;2023-05-08T11:55:48;100822.28;;;19.81;86.00
24558;BME280;12726;49.148;8.582;2023-05-08T11:58:34;100819.91;;;19.95;84.77
24558;BME280;12726;49.148;8.582;2023-05-08T12:01:19;100818.97;;;19.74;86.48
24558;BME280;12726;49.148;8.582;2023-05-08T12:04:06;100819.09;;;19.94;85.76
24558;BME280;12726;49.148;8.582;2023-05-08T12:06:56;100812.28;;;20.54;79.07
24558;BME280;12726;49.148;8.582;2023-05-08T12:09:42;100808.63;;;21.16;80.08
24558;BME280;12726;49.148;8.582;2023-05-08T12:12:38;100816.31;;;21.29;76.76
24558;BME280;12726;49.148;8.582;2023-05-08T12:15:24;100812.16;;;21.32;76.30
24558;BME280;12726;49.148;8.582;2023-05-08T12:18:09;100820.94;;;21.19;78.04
24558;BME280;12726;49.148;8.582;2023-05-08T12:20:56;100814.38;;;21.45;76.44
24558;BME280;12726;49.148;8.582;2023-05-08T12:23:42;100820.94;;;21.64;74.30
24558;BME280;12726;49.148;8.582;2023-05-08T12:26:27;100824.50;;;21.80;73.68
24558;BME280;12726;49.148;8.582;2023-05-08T12:29:17;100815.47;;;21.29;75.13
24558;BME280;12726;49.148;8.582;2023-05-08T12:32:03;100823.66;;;21.14;74.99
24558;BME280;12726;49.148;8.582;2023-05-08T12:34:48;100817.78;;;20.64;76.76
24558;BME280;12726;49.148;8.582;2023-05-08T12:37:35;100810.66;;;20.63;77.96
24558;BME280;12726;49.148;8.582;2023-05-08T12:40:24;100805.75;;;20.65;78.64
24558;BME280;12726;49.148;8.582;2023-05-08T12:43:11;100812.66;;;21.03;76.40
24558;BME280;12726;49.148;8.582;2023-05-08T12:45:57;100810.81;;;21.39;75.36
24558;BME280;12726;49.148;8.582;2023-05-08T12:48:42;100801.16;;;21.82;72.72
24558;BME280;12726;49.148;8.582;2023-05-08T12:51:29;100802.59;;;21.65;73.56
24558;BME280;12726;49.148;8.582;2023-05-08T12:54:15;100805.81;;;21.92;72.53
24558;BME280;12726;49.148;8.582;2023-05-08T12:57:00;100805.84;;;21.87;71.16
24558;BME280;12726;49.148;8.582;2023-05-08T12:59:45;100809.44;;;21.72;70.38
24558;BME280;12726;49.148;8.582;2023-05-08T13:02:32;100801.94;;;22.13;71.86
24558;BME280;12726;49.148;8.582;2023-05-08T13:05:19;100801.41;;;22.16;69.89
24558;BME280;12726;49.148;8.582;2023-05-08T13:08:06;100793.75;;;22.03;72.32
24558;BME280;12726;49.148;8.582;2023-05-08T13:10:55;100794.63;;;21.68;71.66
24558;BME280;12726;49.148;8.582;2023-05-08T13:13:40;100802.88;;;21.58;70.12
24558;BME280;12726;49.148;8.582;2023-05-08T13:16:25;100799.31;;;21.37;72.14
24558;BME280;12726;49.148;8.582;2023-05-08T13:19:12;100790.28;;;21.17;73.66
24558;BME280;12726;49.148;8.582;2023-05-08T13:21:58;100797.63;;;21.06;72.77
24558;BME280;12726;49.148;8.582;2023-05-08T13:24:43;100797.88;;;20.89;75.13
24558;BME280;12726;49.148;8.582;2023-05-08T13:27:28;100795.72;;;21.06;74.70
24558;BME280;12726;49.148;8.582;2023-05-08T13:30:14;100797.94;;;21.25;73.75
24558;BME280;12726;49.148;8.582;2023-05-08T13:33:00;100784.22;;;20.94;74.40
24558;BME280;12726;49.148;8.582;2023-05-08T13:35:47;100782.91;;;21.17;74.03
24558;BME280;12726;49.148;8.582;2023-05-08T13:38:33;100784.75;;;21.06;73.30
24558;BME280;12726;49.148;8.582;2023-05-08T13:41:18;100793.78;;;20.97;74.55
24558;BME280;12726;49.148;8.582;2023-05-08T13:44:04;100786.69;;;21.06;74.83
24558;BME280;12726;49.148;8.582;2023-05-08T13:46:52;100794.88;;;21.06;74.33
24558;BME280;12726;49.148;8.582;2023-05-08T13:49:37;100785.53;;;20.77;75.62
24558;BME280;12726;49.148;8.582;2023-05-08T13:52:25;100784.75;;;20.86;76.48
24558;BME280;12726;49.148;8.582;2023-05-08T13:55:12;100776.25;;;20.93;75.61
24558;BME280;12726;49.148;8.582;2023-05-08T13:58:00;100774.34;;;20.88;74.06
24558;BME280;12726;49.148;8.582;2023-05-08T14:00:45;100764.22;;;20.94;74.39
24558;BME280;12726;49.148;8.582;2023-05-08T14:03:30;100773.84;;;21.17;74.74
24558;BME280;12726;49.148;8.582;2023-05-08T14:06:15;100769.72;;;21.14;73.54
24558;BME280;12726;49.148;8.582;2023-05-08T14:09:02;100774.69;;;21.17;74.09
24558;BME280;12726;49.148;8.582;2023-05-08T14:11:48;100761.25;;;21.21;74.07
24558;BME280;12726;49.148;8.582;2023-05-08T14:14:33;100765.59;;;21.01;74.35
24558;BME280;12726;49.148;8.582;2023-05-08T14:17:18;100764.75;;;20.86;74.77
24558;BME280;12726;49.148;8.582;2023-05-08T14:20:05;100759.00;;;20.97;74.29
24558;BME280;12726;49.148;8.582;2023-05-08T14:22:50;100757.09;;;20.88;73.70
24558;BME280;12726;49.148;8.582;2023-05-08T14:25:37;100745.59;;;20.81;75.11
24558;BME280;12726;49.148;8.582;2023-05-08T14:28:22;100756.22;;;20.52;75.33
24558;BME280;12726;49.148;8.582;2023-05-08T14:31:07;100758.50;;;20.18;77.11
24558;BME280;12726;49.148;8.582;2023-05-08T14:33:52;100747.31;;;20.14;77.39